Time;durP1;ratioP1;P1;durP2;ratioP2;P2;SDS_P1;SDS_P2;PMS_P1;PMS_P2;Temp;Humidity;BMP_temperature;BMP_pressure;BME280_temperature;BME280_humidity;BME280_pressure;Samples;Min_cycle;Max_cycle;Signal;HPM_P1;HPM_P2
2022/08/18 00:00:50;;;;;;;;;;;20.10;81.50;;;;;;5011444;28;20008;-82
2022/08/18 00:03:16;;;;;;;;;;;20.10;81.10;;;;;;5006805;28;19921;-82
2022/08/18 00:05:41;;;;;;;;;;;20.10;81.00;;;;;;5013030;28;19913;-82
2022/08/18 00:08:07;;;;;;;;;;;20.00;81.00;;;;;;5001680;28;20017;-81
2022/08/18 00:10:32;;;;;;;;;;;19.80;81.20;;;;;;5016210;28;19941;-82
2022/08/18 00:12:57;;;;;;;;;;;19.80;81.30;;;;;;5009546;28;19929;-82
2022/08/18 00:15:23;;;;;;;;;;;19.70;81.40;;;;;;5019996;28;19914;-82
2022/08/18 00:17:48;;;;;;;;;;;19.60;81.80;;;;;;5012442;28;20284;-82
2022/08/18 00:20:16;;;;;;;;;;;19.60;82.50;;;;;;5010150;28;20004;-82
2022/08/18 00:22:41;;;;;;;;;;;19.60;82.50;;;;;;5013473;28;19918;-82
2022/08/18 00:25:08;;;;;;;;;;;19.60;82.50;;;;;;5009534;28;19952;-82
2022/08/18 00:27:36;;;;;;;;;;;19.70;82.40;;;;;;5009920;28;20405;-81
2022/08/18 00:30:03;;;;;;;;;;;19.60;82.80;;;;;;5001107;28;19929;-82
2022/08/18 00:32:32;;;;;;;;;;;19.70;82.80;;;;;;5009846;28;19913;-82
2022/08/18 00:35:03;;;;;;;;;;;19.70;83.00;;;;;;5009241;28;20435;-82
2022/08/18 00:37:28;;;;;;;;;;;19.90;82.70;;;;;;5009990;28;19914;-82
2022/08/18 00:39:54;;;;;;;;;;;19.90;82.70;;;;;;5005373;28;19921;-82
2022/08/18 00:42:23;;;;;;;;;;;19.90;82.60;;;;;;5003468;28;20390;-82
2022/08/18 00:44:49;;;;;;;;;;;19.90;82.80;;;;;;5006009;28;19937;-82
2022/08/18 00:47:14;;;;;;;;;;;19.80;82.80;;;;;;5012878;28;20385;-82
2022/08/18 00:49:41;;;;;;;;;;;19.90;82.60;;;;;;5020361;28;19914;-82
2022/08/18 00:52:08;;;;;;;;;;;19.90;82.70;;;;;;5017970;28;19913;-82
2022/08/18 00:54:34;;;;;;;;;;;20.00;82.50;;;;;;5012687;28;20203;-82
2022/08/18 00:57:04;;;;;;;;;;;20.00;82.40;;;;;;5009263;28;19994;-82
2022/08/18 00:59:44;;;;;;;;;;;20.00;82.20;;;;;;5007808;28;19913;-82
2022/08/18 01:02:18;;;;;;;;;;;19.90;82.50;;;;;;5004148;28;20411;-82
2022/08/18 01:04:48;;;;;;;;;;;19.90;82.60;;;;;;4998335;28;19960;-82
2022/08/18 01:07:19;;;;;;;;;;;19.90;82.50;;;;;;5020513;28;19924;-82
2022/08/18 01:09:45;;;;;;;;;;;19.90;82.60;;;;;;5009896;28;19913;-82
2022/08/18 01:12:11;;;;;;;;;;;19.90;82.50;;;;;;5010632;28;19917;-82
2022/08/18 01:14:37;;;;;;;;;;;19.90;82.70;;;;;;5025266;28;19914;-82
2022/08/18 01:22:50;;;;;;;;;;;19.80;82.80;;;;;;4992386;28;19985;-82
2022/08/18 01:28:02;;;;;;;;;;;19.80;82.70;;;;;;5017077;28;20331;-83
2022/08/18 01:30:28;;;;;;;;;;;19.80;82.90;;;;;;5012691;28;19914;-83
2022/08/18 01:32:54;;;;;;;;;;;19.70;83.10;;;;;;5013764;28;19914;-83
2022/08/18 01:35:21;;;;;;;;;;;19.80;83.20;;;;;;5005839;28;19918;-83
2022/08/18 01:37:47;;;;;;;;;;;19.80;83.10;;;;;;5010301;28;19920;-83
2022/08/18 01:40:13;;;;;;;;;;;19.70;83.10;;;;;;5028160;28;19913;-84
2022/08/18 01:42:42;;;;;;;;;;;19.70;83.20;;;;;;5011267;28;19921;-83
2022/08/18 01:45:07;;;;;;;;;;;19.70;83.30;;;;;;5028451;28;20009;-83
2022/08/18 01:47:34;;;;;;;;;;;19.70;83.30;;;;;;5012138;28;19949;-83
2022/08/18 01:50:00;;;;;;;;;;;19.80;83.10;;;;;;5011328;28;19972;-83
2022/08/18 01:52:28;;;;;;;;;;;19.80;83.10;;;;;;5010993;28;20312;-83
2022/08/18 01:54:56;;;;;;;;;;;19.70;83.40;;;;;;5013346;28;19968;-83
2022/08/18 01:57:23;;;;;;;;;;;19.70;83.50;;;;;;5010635;28;19953;-83
2022/08/18 01:59:49;;;;;;;;;;;19.60;83.60;;;;;;5022566;28;19975;-83
2022/08/18 02:02:17;;;;;;;;;;;19.60;83.70;;;;;;5014082;28;20461;-83
2022/08/18 02:04:43;;;;;;;;;;;19.60;83.50;;;;;;5010563;28;19920;-83
2022/08/18 02:07:10;;;;;;;;;;;19.70;83.30;;;;;;5007993;28;19913;-83
2022/08/18 02:09:36;;;;;;;;;;;19.50;83.80;;;;;;5029503;28;19920;-84
2022/08/18 02:12:02;;;;;;;;;;;19.50;84.10;;;;;;5024797;28;19917;-83
2022/08/18 02:14:28;;;;;;;;;;;19.60;84.10;;;;;;5008559;28;19933;-83
2022/08/18 02:16:57;;;;;;;;;;;19.60;83.90;;;;;;5005707;28;19921;-83
2022/08/18 02:19:22;;;;;;;;;;;19.60;83.80;;;;;;5011113;28;19936;-83
2022/08/18 02:21:48;;;;;;;;;;;19.60;84.10;;;;;;5013464;28;20447;-83
2022/08/18 02:24:13;;;;;;;;;;;19.60;84.00;;;;;;5013232;28;19917;-84
2022/08/18 02:26:38;;;;;;;;;;;19.60;84.30;;;;;;5013038;28;19918;-83
2022/08/18 02:29:04;;;;;;;;;;;19.50;84.40;;;;;;5017661;28;19913;-83
2022/08/18 02:31:29;;;;;;;;;;;19.50;84.50;;;;;;5009275;28;19914;-83
2022/08/18 02:33:56;;;;;;;;;;;19.50;84.50;;;;;;5008655;28;19913;-83
2022/08/18 02:36:21;;;;;;;;;;;19.50;84.70;;;;;;5013100;28;20005;-84
2022/08/18 02:38:47;;;;;;;;;;;19.40;84.70;;;;;;5011559;28;19973;-84
2022/08/18 02:41:13;;;;;;;;;;;19.50;84.50;;;;;;5016012;28;19920;-83
2022/08/18 02:43:40;;;;;;;;;;;19.40;84.60;;;;;;5012787;28;19917;-84
2022/08/18 02:46:06;;;;;;;;;;;19.40;84.70;;;;;;5020943;28;19957;-83
2022/08/18 02:48:34;;;;;;;;;;;19.50;84.30;;;;;;5010134;28;19913;-84
2022/08/18 02:51:04;;;;;;;;;;;19.40;84.40;;;;;;5010945;28;20293;-83
2022/08/18 02:53:30;;;;;;;;;;;19.40;84.50;;;;;;5016709;28;20400;-83
2022/08/18 02:56:07;;;;;;;;;;;19.30;84.90;;;;;;5007106;28;19913;-83
2022/08/18 02:58:33;;;;;;;;;;;19.30;85.00;;;;;;5005563;28;19924;-83
2022/08/18 03:00:58;;;;;;;;;;;19.30;85.20;;;;;;5023303;28;19913;-83
2022/08/18 03:03:24;;;;;;;;;;;19.30;85.00;;;;;;5020593;28;19948;-84
2022/08/18 03:05:49;;;;;;;;;;;19.40;85.10;;;;;;5004862;28;19917;-83
2022/08/18 03:08:14;;;;;;;;;;;19.40;85.10;;;;;;5014423;28;19928;-83
2022/08/18 03:10:40;;;;;;;;;;;19.50;85.10;;;;;;5015087;28;20004;-84
2022/08/18 03:13:05;;;;;;;;;;;19.50;85.20;;;;;;5016716;28;19925;-84
2022/08/18 03:15:31;;;;;;;;;;;19.60;85.20;;;;;;5008769;28;20364;-84
2022/08/18 03:17:56;;;;;;;;;;;19.60;85.20;;;;;;5010574;28;20002;-84
2022/08/18 03:20:23;;;;;;;;;;;19.60;85.00;;;;;;5012327;28;19913;-83
2022/08/18 03:22:48;;;;;;;;;;;19.60;85.20;;;;;;5021997;28;20296;-84
2022/08/18 03:25:14;;;;;;;;;;;19.70;84.90;;;;;;5022723;28;19917;-84
2022/08/18 03:27:39;;;;;;;;;;;19.70;84.80;;;;;;5013112;28;19917;-84
2022/08/18 03:30:05;;;;;;;;;;;19.70;84.90;;;;;;5011355;28;19968;-83
2022/08/18 03:32:30;;;;;;;;;;;19.80;84.90;;;;;;5006974;28;19913;-84
2022/08/18 03:34:56;;;;;;;;;;;19.80;84.50;;;;;;5006332;28;20319;-83
2022/08/18 03:37:21;;;;;;;;;;;19.90;84.30;;;;;;5010800;28;19921;-84
2022/08/18 03:39:50;;;;;;;;;;;19.80;84.40;;;;;;5013747;28;19920;-84
2022/08/18 03:42:16;;;;;;;;;;;19.90;84.40;;;;;;5022166;28;19972;-84
2022/08/18 03:44:42;;;;;;;;;;;19.80;84.30;;;;;;5010762;28;19929;-84
2022/08/18 03:47:08;;;;;;;;;;;19.90;84.30;;;;;;5009946;28;19917;-84
2022/08/18 03:49:34;;;;;;;;;;;19.80;84.30;;;;;;5008922;28;19921;-83
2022/08/18 03:52:00;;;;;;;;;;;19.90;84.30;;;;;;5011012;28;19931;-83
2022/08/18 03:54:26;;;;;;;;;;;19.90;83.90;;;;;;5020299;28;21226;-84
2022/08/18 03:56:53;;;;;;;;;;;19.80;83.90;;;;;;5008479;28;19957;-83
2022/08/18 03:59:20;;;;;;;;;;;19.90;83.40;;;;;;5010432;28;20387;-83
2022/08/18 04:01:46;;;;;;;;;;;19.80;83.30;;;;;;5014683;28;19928;-83
2022/08/18 04:04:14;;;;;;;;;;;19.80;83.40;;;;;;5007511;28;19917;-83
2022/08/18 04:06:54;;;;;;;;;;;19.80;83.20;;;;;;5014630;28;19917;-85
2022/08/18 04:09:20;;;;;;;;;;;19.70;83.70;;;;;;5020153;28;20399;-83
2022/08/18 04:11:45;;;;;;;;;;;19.80;83.10;;;;;;5020940;28;19913;-83
2022/08/18 04:14:12;;;;;;;;;;;19.70;83.50;;;;;;5018629;28;20460;-83
2022/08/18 04:16:38;;;;;;;;;;;19.60;83.90;;;;;;5015482;28;20299;-83
2022/08/18 04:19:04;;;;;;;;;;;19.50;84.00;;;;;;5018420;28;19914;-83
2022/08/18 04:21:31;;;;;;;;;;;19.50;84.30;;;;;;5015504;28;19929;-83
2022/08/18 04:24:01;;;;;;;;;;;19.50;84.50;;;;;;5017463;28;19922;-83
2022/08/18 04:26:27;;;;;;;;;;;19.50;84.40;;;;;;5033393;28;20668;-83
2022/08/18 04:28:53;;;;;;;;;;;19.50;84.00;;;;;;5033547;28;19913;-83
2022/08/18 04:31:22;;;;;;;;;;;19.50;84.20;;;;;;5012680;28;19996;-83
2022/08/18 04:33:48;;;;;;;;;;;19.30;84.10;;;;;;5006697;28;19913;-83
2022/08/18 04:36:15;;;;;;;;;;;19.40;84.30;;;;;;5015684;28;19914;-83
2022/08/18 04:38:41;;;;;;;;;;;19.50;83.60;;;;;;5016587;28;20359;-83
2022/08/18 04:41:07;;;;;;;;;;;19.50;84.00;;;;;;5019401;28;19916;-83
2022/08/18 04:43:32;;;;;;;;;;;19.50;84.00;;;;;;5013022;28;19925;-83
2022/08/18 04:46:00;;;;;;;;;;;19.50;84.20;;;;;;5014848;28;20219;-83
2022/08/18 04:48:34;;;;;;;;;;;19.40;84.10;;;;;;5014610;28;19914;-83
2022/08/18 04:51:10;;;;;;;;;;;19.40;84.20;;;;;;5023284;28;20311;-83
2022/08/18 04:53:44;;;;;;;;;;;19.40;84.20;;;;;;5009994;28;19959;-83
2022/08/18 04:56:25;;;;;;;;;;;19.40;84.20;;;;;;5015358;28;20406;-83
2022/08/18 04:59:11;;;;;;;;;;;19.40;84.10;;;;;;5013588;28;20419;-83
2022/08/18 05:01:38;;;;;;;;;;;19.30;84.50;;;;;;5014691;28;19921;-83
2022/08/18 05:04:03;;;;;;;;;;;19.30;84.50;;;;;;5032565;28;19921;-83
2022/08/18 05:06:29;;;;;;;;;;;19.50;84.50;;;;;;5035778;28;19918;-83
2022/08/18 05:08:59;;;;;;;;;;;19.50;84.20;;;;;;5022940;28;19920;-82
2022/08/18 05:11:27;;;;;;;;;;;19.50;83.90;;;;;;5020388;28;19914;-87
2022/08/18 05:13:55;;;;;;;;;;;19.50;83.70;;;;;;5016047;28;19936;-84
2022/08/18 05:16:20;;;;;;;;;;;19.50;83.70;;;;;;5045272;28;19901;-83
2022/08/18 05:18:47;;;;;;;;;;;19.50;84.00;;;;;;5028947;28;19944;-84
2022/08/18 05:21:14;;;;;;;;;;;19.60;83.70;;;;;;5020913;28;19922;-84
2022/08/18 05:23:41;;;;;;;;;;;19.60;83.60;;;;;;5008561;28;20431;-85
2022/08/18 05:26:15;;;;;;;;;;;19.70;83.30;;;;;;5010949;28;19943;-85
2022/08/18 05:28:50;;;;;;;;;;;19.60;83.40;;;;;;5012514;28;20403;-84
2022/08/18 05:31:21;;;;;;;;;;;19.70;83.40;;;;;;5011677;28;19975;-80
2022/08/18 05:33:47;;;;;;;;;;;19.70;83.40;;;;;;5005893;28;19967;-83
2022/08/18 05:36:28;;;;;;;;;;;19.80;83.20;;;;;;5006228;28;20016;-83
2022/08/18 05:39:11;;;;;;;;;;;19.70;83.40;;;;;;5022331;28;19925;-82
2022/08/18 05:41:38;;;;;;;;;;;19.90;83.00;;;;;;5012630;28;19980;-82
2022/08/18 05:44:06;;;;;;;;;;;19.80;83.20;;;;;;5006469;28;19968;-78
2022/08/18 05:46:36;;;;;;;;;;;19.80;83.10;;;;;;5007769;28;19983;-82
2022/08/18 05:49:04;;;;;;;;;;;19.90;82.80;;;;;;5009231;28;21255;-82
2022/08/18 05:51:37;;;;;;;;;;;19.90;83.00;;;;;;5018246;28;19987;-81
2022/08/18 05:56:49;;;;;;;;;;;19.90;82.90;;;;;;5013644;28;19907;-86
2022/08/18 05:59:16;;;;;;;;;;;19.90;82.70;;;;;;5023957;28;19960;-81
2022/08/18 06:01:45;;;;;;;;;;;19.80;82.80;;;;;;5017690;28;19920;-81
2022/08/18 06:04:19;;;;;;;;;;;19.70;82.90;;;;;;5009993;28;19924;-81
2022/08/18 06:06:46;;;;;;;;;;;19.80;83.10;;;;;;5005213;28;19913;-81
2022/08/18 06:09:15;;;;;;;;;;;19.80;82.80;;;;;;5023353;28;19921;-81
2022/08/18 06:11:42;;;;;;;;;;;20.00;82.40;;;;;;5031428;28;19913;-81
2022/08/18 06:14:07;;;;;;;;;;;20.10;82.10;;;;;;5015687;28;19913;-83
2022/08/18 06:16:48;;;;;;;;;;;20.20;81.70;;;;;;5020939;28;20499;-83
2022/08/18 06:19:25;;;;;;;;;;;20.20;81.30;;;;;;5014053;28;19921;-83
2022/08/18 06:21:58;;;;;;;;;;;20.30;81.40;;;;;;5022971;28;19913;-83
2022/08/18 06:24:34;;;;;;;;;;;20.30;81.40;;;;;;5021587;28;19921;-83
2022/08/18 06:27:06;;;;;;;;;;;20.40;81.00;;;;;;5026113;28;19928;-83
2022/08/18 06:30:03;;;;;;;;;;;20.50;80.70;;;;;;5016257;28;19910;-84
2022/08/18 06:32:40;;;;;;;;;;;20.50;80.70;;;;;;5023912;28;20337;-82
2022/08/18 06:35:11;;;;;;;;;;;20.50;80.60;;;;;;5021021;28;20351;-83
2022/08/18 06:41:22;;;;;;;;;;;20.70;80.10;;;;;;4973060;28;19921;-83
2022/08/18 06:44:04;;;;;;;;;;;20.90;80.00;;;;;;4961620;28;20026;-82
2022/08/18 06:46:32;;;;;;;;;;;21.10;79.30;;;;;;5008451;28;19964;-83
2022/08/18 06:49:02;;;;;;;;;;;21.00;79.20;;;;;;5030031;28;19920;-83
2022/08/18 06:51:28;;;;;;;;;;;21.00;78.90;;;;;;5027022;28;19914;-83
2022/08/18 06:53:59;;;;;;;;;;;21.00;79.00;;;;;;5020477;28;19956;-83
2022/08/18 06:56:27;;;;;;;;;;;20.90;79.20;;;;;;5015341;28;20443;-83
2022/08/18 06:58:54;;;;;;;;;;;20.80;79.40;;;;;;5025845;28;20406;-83
2022/08/18 07:01:20;;;;;;;;;;;20.80;79.30;;;;;;5016161;28;20682;-83
2022/08/18 07:03:55;;;;;;;;;;;20.80;79.40;;;;;;5020560;28;19917;-83
2022/08/18 07:06:20;;;;;;;;;;;20.80;79.50;;;;;;5027225;28;19917;-83
2022/08/18 07:08:47;;;;;;;;;;;20.70;79.80;;;;;;5025666;28;19958;-83
2022/08/18 07:11:16;;;;;;;;;;;20.60;80.40;;;;;;5022743;28;19921;-83
2022/08/18 07:13:43;;;;;;;;;;;20.70;80.50;;;;;;5020832;28;19921;-82
2022/08/18 07:16:17;;;;;;;;;;;20.60;80.40;;;;;;5026272;28;19913;-84
2022/08/18 07:18:42;;;;;;;;;;;20.70;80.50;;;;;;5024757;28;19913;-81
2022/08/18 07:21:08;;;;;;;;;;;20.60;80.30;;;;;;5023378;28;19917;-82
2022/08/18 07:23:38;;;;;;;;;;;20.50;80.80;;;;;;5026858;28;19913;-82
2022/08/18 07:26:03;;;;;;;;;;;20.50;81.10;;;;;;5027593;28;20550;-82
2022/08/18 07:28:44;;;;;;;;;;;20.50;81.10;;;;;;5031859;22;19925;-84
2022/08/18 07:31:13;;;;;;;;;;;20.50;81.80;;;;;;5016565;28;19913;-84
2022/08/18 07:33:40;;;;;;;;;;;20.50;81.60;;;;;;4995273;28;19920;-84
2022/08/18 07:36:08;;;;;;;;;;;20.40;82.20;;;;;;5005009;28;19918;-84
2022/08/18 07:38:43;;;;;;;;;;;20.50;82.60;;;;;;5019500;28;19939;-84
2022/08/18 07:41:31;;;;;;;;;;;20.50;82.10;;;;;;4999063;28;19913;-83
2022/08/18 07:44:17;;;;;;;;;;;20.50;81.90;;;;;;5006718;28;19921;-86
2022/08/18 07:46:50;;;;;;;;;;;20.50;82.00;;;;;;4950501;28;19992;-85
2022/08/18 07:49:19;;;;;;;;;;;20.50;81.90;;;;;;4995190;28;19952;-84
2022/08/18 07:51:51;;;;;;;;;;;20.60;81.20;;;;;;4996785;28;20398;-85
2022/08/18 07:54:16;;;;;;;;;;;20.60;81.00;;;;;;5017508;28;19925;-86
2022/08/18 07:56:49;;;;;;;;;;;20.70;80.70;;;;;;4991961;28;20431;-89
2022/08/18 07:59:18;;;;;;;;;;;20.70;80.60;;;;;;5001536;28;19913;-87
2022/08/18 08:01:56;;;;;;;;;;;20.60;80.70;;;;;;4994678;28;19917;-89
2022/08/18 08:04:29;;;;;;;;;;;20.60;80.90;;;;;;4999750;28;19917;-88
2022/08/18 08:07:01;;;;;;;;;;;20.50;81.30;;;;;;4996029;28;19971;-89
2022/08/18 08:09:45;;;;;;;;;;;20.50;81.30;;;;;;4989653;28;19951;-87
2022/08/18 08:12:33;;;;;;;;;;;20.50;81.40;;;;;;5015355;28;19913;-87
2022/08/18 08:15:17;;;;;;;;;;;20.50;81.40;;;;;;5029518;28;19922;-88
2022/08/18 08:17:52;;;;;;;;;;;20.50;81.70;;;;;;4999396;28;20276;-88
2022/08/18 08:20:28;;;;;;;;;;;20.50;81.80;;;;;;5017278;28;20307;-86
2022/08/18 08:22:57;;;;;;;;;;;20.50;81.80;;;;;;5006248;28;19918;-88
2022/08/18 08:25:28;;;;;;;;;;;20.70;81.40;;;;;;5009288;28;20321;-87
2022/08/18 08:27:59;;;;;;;;;;;20.70;81.30;;;;;;4986361;28;19921;-88
2022/08/18 08:30:34;;;;;;;;;;;20.80;81.10;;;;;;5019768;28;19913;-88
2022/08/18 08:33:06;;;;;;;;;;;21.00;80.70;;;;;;4988762;28;20272;-86
2022/08/18 08:35:35;;;;;;;;;;;21.10;80.20;;;;;;4994862;28;19921;-87
2022/08/18 08:38:16;;;;;;;;;;;21.20;79.80;;;;;;4996630;28;19917;-86
2022/08/18 08:40:50;;;;;;;;;;;21.20;79.80;;;;;;4989408;28;19909;-87
2022/08/18 08:43:18;;;;;;;;;;;21.30;79.50;;;;;;5001449;28;20448;-87
2022/08/18 08:46:07;;;;;;;;;;;21.40;79.20;;;;;;4997277;28;19920;-87
2022/08/18 08:48:35;;;;;;;;;;;21.50;78.80;;;;;;4984415;28;19946;-87
2022/08/18 08:51:06;;;;;;;;;;;21.50;78.70;;;;;;5020321;28;19920;-87
2022/08/18 08:53:42;;;;;;;;;;;21.40;78.90;;;;;;5000132;28;19913;-87
2022/08/18 08:56:09;;;;;;;;;;;21.50;78.70;;;;;;4995536;28;20005;-87
2022/08/18 08:58:40;;;;;;;;;;;21.60;78.40;;;;;;4992396;28;19933;-87
2022/08/18 09:01:09;;;;;;;;;;;21.80;77.90;;;;;;4999287;28;19917;-87
2022/08/18 09:03:41;;;;;;;;;;;21.90;77.40;;;;;;4994616;28;19932;-87
2022/08/18 09:06:10;;;;;;;;;;;22.00;77.20;;;;;;4994685;28;20008;-87
2022/08/18 09:08:54;;;;;;;;;;;22.10;77.00;;;;;;4994361;28;19917;-86
2022/08/18 09:11:40;;;;;;;;;;;22.30;76.10;;;;;;4993038;28;19914;-87
2022/08/18 09:14:22;;;;;;;;;;;22.50;75.50;;;;;;4980450;28;19921;-87
2022/08/18 09:16:54;;;;;;;;;;;22.60;74.90;;;;;;4987970;28;19917;-87
2022/08/18 09:19:39;;;;;;;;;;;22.70;74.50;;;;;;5003972;28;19913;-89
2022/08/18 09:22:20;;;;;;;;;;;22.90;73.50;;;;;;5008336;28;20361;-89
2022/08/18 09:24:48;;;;;;;;;;;22.70;74.40;;;;;;4997467;28;19910;-89
2022/08/18 09:27:29;;;;;;;;;;;22.70;74.30;;;;;;5011224;28;19917;-87
2022/08/18 09:29:56;;;;;;;;;;;22.80;73.90;;;;;;4995467;28;19924;-89
2022/08/18 09:32:21;;;;;;;;;;;22.80;74.00;;;;;;4999594;28;20380;-88
2022/08/18 09:34:55;;;;;;;;;;;22.60;74.30;;;;;;4988804;28;19917;-88
2022/08/18 09:37:24;;;;;;;;;;;22.60;74.30;;;;;;4996442;28;20009;-86
2022/08/18 09:42:56;;;;;;;;;;;22.80;74.00;;;;;;5008336;28;19972;-88
2022/08/18 09:45:31;;;;;;;;;;;22.80;73.60;;;;;;5001555;28;19918;-87
2022/08/18 09:48:01;;;;;;;;;;;23.00;73.00;;;;;;5013509;28;20008;-88
2022/08/18 09:50:27;;;;;;;;;;;23.00;73.00;;;;;;4996436;28;20380;-87
2022/08/18 09:52:57;;;;;;;;;;;23.20;72.10;;;;;;5015341;28;19920;-87
2022/08/18 09:55:23;;;;;;;;;;;23.10;71.90;;;;;;4995900;28;19909;-88
2022/08/18 09:58:08;;;;;;;;;;;23.20;71.70;;;;;;4992854;28;19918;-86
2022/08/18 10:00:34;;;;;;;;;;;23.40;70.90;;;;;;5012126;28;20656;-87
2022/08/18 10:03:01;;;;;;;;;;;23.40;71.20;;;;;;5010469;28;19918;-89
2022/08/18 10:05:28;;;;;;;;;;;23.30;71.10;;;;;;4997714;28;19921;-87
2022/08/18 10:08:15;;;;;;;;;;;;;;;;;;;;;
2022/08/18 10:10:43;;;;;;;;;;;23.10;72.20;;;;;;5009891;28;19909;-88
2022/08/18 10:13:20;;;;;;;;;;;23.30;71.70;;;;;;4996726;28;19913;-87
2022/08/18 10:15:51;;;;;;;;;;;23.60;71.20;;;;;;5014773;28;19913;-89
2022/08/18 10:18:17;;;;;;;;;;;23.60;70.50;;;;;;5008766;28;20384;-88
2022/08/18 10:21:02;;;;;;;;;;;23.60;70.30;;;;;;5021162;28;19914;-88
2022/08/18 10:23:42;;;;;;;;;;;23.60;70.60;;;;;;5001365;28;19922;-88
2022/08/18 10:26:28;;;;;;;;;;;23.70;70.80;;;;;;4991531;28;19917;-87
2022/08/18 10:29:12;;;;;;;;;;;23.90;69.50;;;;;;4979081;28;19956;-88
2022/08/18 10:32:07;;;;;;;;;;;23.70;69.30;;;;;;4996710;28;19940;-88
2022/08/18 10:34:37;;;;;;;;;;;23.60;69.50;;;;;;4970203;28;19913;-88
2022/08/18 10:37:20;;;;;;;;;;;23.60;69.80;;;;;;5014032;28;20376;-88
2022/08/18 10:39:52;;;;;;;;;;;23.80;69.30;;;;;;5003005;28;19921;-88
2022/08/18 10:42:18;;;;;;;;;;;23.80;69.80;;;;;;4987772;28;19922;-88
2022/08/18 10:44:44;;;;;;;;;;;23.80;70.00;;;;;;4995023;28;20012;-88
2022/08/18 10:47:20;;;;;;;;;;;23.80;70.00;;;;;;5009816;28;19920;-88
2022/08/18 10:49:48;;;;;;;;;;;23.90;69.10;;;;;;5039409;28;19912;-88
2022/08/18 10:52:29;;;;;;;;;;;23.80;69.20;;;;;;5027213;28;19944;-88
2022/08/18 10:55:14;;;;;;;;;;;23.80;69.10;;;;;;4985181;28;19933;-88
2022/08/18 10:57:56;;;;;;;;;;;24.00;68.50;;;;;;4983610;28;19951;-88
2022/08/18 11:00:25;;;;;;;;;;;24.10;68.00;;;;;;4992880;28;19992;-85
2022/08/18 11:02:54;;;;;;;;;;;24.20;68.30;;;;;;4995326;28;20028;-85
2022/08/18 11:05:23;;;;;;;;;;;24.20;67.70;;;;;;5016597;28;20000;-86
2022/08/18 11:07:50;;;;;;;;;;;24.30;66.90;;;;;;4995749;28;19921;-86
2022/08/18 11:10:17;;;;;;;;;;;24.30;67.40;;;;;;4997591;28;19956;-86
2022/08/18 11:12:56;;;;;;;;;;;24.40;67.40;;;;;;5012995;28;19955;-86
2022/08/18 11:15:24;;;;;;;;;;;24.40;67.00;;;;;;5024785;28;19919;-86
2022/08/18 11:18:02;;;;;;;;;;;24.40;65.90;;;;;;4998230;28;19938;-86
2022/08/18 11:20:30;;;;;;;;;;;24.50;66.10;;;;;;5000021;28;19915;-86
2022/08/18 11:22:57;;;;;;;;;;;24.60;66.10;;;;;;5002499;28;19925;-86
2022/08/18 11:25:28;;;;;;;;;;;24.80;66.30;;;;;;4996461;28;19913;-86
2022/08/18 11:27:55;;;;;;;;;;;24.70;66.50;;;;;;5000909;28;19955;-86
2022/08/18 11:30:21;;;;;;;;;;;24.50;66.60;;;;;;5009173;28;19921;-86
2022/08/18 11:32:48;;;;;;;;;;;24.50;66.20;;;;;;4997114;28;19914;-87
2022/08/18 11:35:18;;;;;;;;;;;24.30;66.60;;;;;;5000161;28;19960;-86
2022/08/18 11:37:46;;;;;;;;;;;24.20;66.40;;;;;;5001264;28;19921;-86
2022/08/18 11:40:17;;;;;;;;;;;24.00;67.70;;;;;;5000745;28;19913;-86
2022/08/18 11:42:55;;;;;;;;;;;23.90;68.30;;;;;;5014999;28;19914;-86
2022/08/18 11:45:22;;;;;;;;;;;23.90;67.60;;;;;;4997679;28;19913;-85
2022/08/18 11:48:07;;;;;;;;;;;23.80;68.00;;;;;;4997108;28;20388;-85
2022/08/18 11:50:33;;;;;;;;;;;23.70;68.70;;;;;;5045685;28;19976;-85
2022/08/18 11:53:12;;;;;;;;;;;23.70;69.20;;;;;;5009299;28;19913;-85
2022/08/18 11:55:37;;;;;;;;;;;24.00;68.20;;;;;;4994756;28;19922;-84
2022/08/18 11:58:05;;;;;;;;;;;24.10;67.80;;;;;;5012334;28;20241;-85
2022/08/18 12:00:37;;;;;;;;;;;24.00;68.20;;;;;;5000162;28;19924;-87
2022/08/18 12:03:03;;;;;;;;;;;24.20;67.90;;;;;;5003090;28;20199;-87
2022/08/18 12:05:39;;;;;;;;;;;24.20;67.80;;;;;;5008264;28;20311;-88
2022/08/18 12:08:15;;;;;;;;;;;24.40;67.40;;;;;;5002274;28;19914;-87
2022/08/18 12:10:40;;;;;;;;;;;24.50;65.90;;;;;;4994797;28;19916;-88
2022/08/18 12:13:06;;;;;;;;;;;24.50;66.00;;;;;;4985201;28;19913;-88
2022/08/18 12:15:35;;;;;;;;;;;24.60;66.20;;;;;;5012272;28;20396;-88
2022/08/18 12:18:00;;;;;;;;;;;24.70;65.60;;;;;;5016336;28;19910;-88
2022/08/18 12:20:26;;;;;;;;;;;24.80;65.80;;;;;;4997794;28;19920;-88
2022/08/18 12:22:54;;;;;;;;;;;24.80;65.30;;;;;;5003640;28;20413;-88
2022/08/18 12:25:20;;;;;;;;;;;25.00;64.80;;;;;;5007136;28;19914;-88
2022/08/18 12:27:45;;;;;;;;;;;25.00;64.50;;;;;;5007534;28;19917;-87
2022/08/18 12:30:11;;;;;;;;;;;25.00;64.30;;;;;;5002011;28;19952;-88
2022/08/18 12:32:37;;;;;;;;;;;25.00;64.10;;;;;;5024210;28;19909;-88
2022/08/18 12:35:03;;;;;;;;;;;25.00;63.50;;;;;;5029219;28;19913;-85
2022/08/18 12:37:29;;;;;;;;;;;25.10;63.00;;;;;;5003557;28;19909;-84
2022/08/18 12:39:56;;;;;;;;;;;25.00;63.60;;;;;;5009563;28;20292;-84
2022/08/18 12:42:21;;;;;;;;;;;25.10;63.50;;;;;;5013327;28;20000;-83
2022/08/18 12:44:47;;;;;;;;;;;24.90;63.60;;;;;;5019258;28;19980;-83
2022/08/18 12:47:14;;;;;;;;;;;25.00;64.50;;;;;;5017175;28;19964;-82
2022/08/18 12:49:40;;;;;;;;;;;25.10;63.30;;;;;;4995041;28;19917;-83
2022/08/18 12:52:05;;;;;;;;;;;25.10;63.90;;;;;;5024465;28;19923;-84
2022/08/18 12:54:32;;;;;;;;;;;25.20;63.20;;;;;;5003647;28;19914;-83
2022/08/18 12:56:58;;;;;;;;;;;25.30;62.50;;;;;;4994909;28;20008;-84
2022/08/18 12:59:23;;;;;;;;;;;25.50;62.10;;;;;;5011213;28;20005;-84
2022/08/18 13:01:49;;;;;;;;;;;25.50;61.40;;;;;;5001812;28;20059;-83
2022/08/18 13:04:15;;;;;;;;;;;25.50;61.20;;;;;;4994726;28;19925;-83
2022/08/18 13:06:52;;;;;;;;;;;25.50;61.30;;;;;;4988182;28;19913;-83
2022/08/18 13:09:18;;;;;;;;;;;25.20;62.10;;;;;;5019948;28;19928;-83
2022/08/18 13:11:43;;;;;;;;;;;25.20;62.50;;;;;;5027276;28;19909;-83
2022/08/18 13:14:09;;;;;;;;;;;25.40;60.80;;;;;;5015003;28;20292;-83
2022/08/18 13:16:37;;;;;;;;;;;25.40;61.90;;;;;;5003964;28;20363;-83
2022/08/18 13:19:03;;;;;;;;;;;25.30;61.20;;;;;;5021219;28;20360;-83
2022/08/18 13:21:29;;;;;;;;;;;25.30;62.20;;;;;;4998458;28;19928;-83
2022/08/18 13:23:54;;;;;;;;;;;25.30;62.50;;;;;;4996161;28;19921;-83
2022/08/18 13:26:23;;;;;;;;;;;25.40;61.20;;;;;;5006034;28;20003;-84
2022/08/18 13:28:49;;;;;;;;;;;25.10;61.40;;;;;;5058770;22;20029;-85
2022/08/18 13:31:14;;;;;;;;;;;25.10;61.10;;;;;;5025308;28;19952;-87
2022/08/18 13:33:40;;;;;;;;;;;25.10;61.00;;;;;;5013486;28;19913;-86
2022/08/18 13:36:06;;;;;;;;;;;25.10;61.00;;;;;;5011882;28;19914;-86
2022/08/18 13:38:31;;;;;;;;;;;25.00;60.90;;;;;;5012817;28;19914;-91
2022/08/18 13:40:59;;;;;;;;;;;24.80;61.60;;;;;;5016138;28;20093;-85
2022/08/18 13:43:34;;;;;;;;;;;24.80;62.40;;;;;;5029251;28;19917;-85
2022/08/18 13:46:00;;;;;;;;;;;24.80;62.00;;;;;;5024932;28;19940;-85
2022/08/18 13:48:27;;;;;;;;;;;24.90;60.70;;;;;;5021119;28;20005;-84
2022/08/18 13:50:53;;;;;;;;;;;24.60;61.40;;;;;;5020799;28;19960;-84
2022/08/18 13:53:20;;;;;;;;;;;24.60;60.00;;;;;;5032705;28;20063;-84
2022/08/18 13:55:45;;;;;;;;;;;24.40;61.00;;;;;;5014005;28;19920;-85
2022/08/18 13:58:11;;;;;;;;;;;24.50;60.70;;;;;;5009421;28;19913;-84
2022/08/18 14:00:37;;;;;;;;;;;24.50;62.00;;;;;;5012619;28;20055;-85
2022/08/18 14:03:03;;;;;;;;;;;24.60;61.40;;;;;;5028917;28;19921;-84
2022/08/18 14:05:30;;;;;;;;;;;24.80;60.90;;;;;;5026501;28;19982;-84
2022/08/18 14:07:56;;;;;;;;;;;24.90;59.30;;;;;;5015012;28;19995;-84
2022/08/18 14:10:21;;;;;;;;;;;24.80;59.10;;;;;;5029076;28;19952;-84
2022/08/18 14:12:47;;;;;;;;;;;24.80;57.90;;;;;;5018523;28;19948;-84
2022/08/18 14:15:14;;;;;;;;;;;24.90;58.80;;;;;;5045770;28;20180;-85
2022/08/18 14:17:40;;;;;;;;;;;25.00;58.70;;;;;;5030106;28;20430;-85
2022/08/18 14:28:22;;;;;;;;;;;25.80;55.90;;;;;;5031574;28;20024;-84
2022/08/18 14:30:48;;;;;;;;;;;25.80;56.30;;;;;;5027436;28;19966;-85
2022/08/18 14:33:16;;;;;;;;;;;25.80;56.20;;;;;;5018541;28;19990;-85
2022/08/18 14:35:42;;;;;;;;;;;25.90;55.80;;;;;;5007379;28;19913;-84
2022/08/18 14:38:07;;;;;;;;;;;25.80;55.70;;;;;;5036842;28;19920;-85
2022/08/18 14:40:33;;;;;;;;;;;25.80;55.70;;;;;;5035425;28;19909;-84
2022/08/18 14:43:00;;;;;;;;;;;25.90;55.60;;;;;;5026996;28;19917;-84
2022/08/18 14:45:27;;;;;;;;;;;25.70;56.10;;;;;;5025768;28;19921;-84
2022/08/18 14:47:52;;;;;;;;;;;25.70;55.30;;;;;;5031081;28;19913;-85
2022/08/18 14:50:19;;;;;;;;;;;25.60;54.70;;;;;;5015547;28;19913;-85
2022/08/18 14:52:44;;;;;;;;;;;25.70;54.30;;;;;;5028037;28;19913;-85
2022/08/18 14:55:10;;;;;;;;;;;25.50;55.20;;;;;;5033367;28;20410;-84
2022/08/18 14:57:37;;;;;;;;;;;25.50;55.00;;;;;;5021933;28;19917;-84